sensor_id;sensor_type;location;lat;lon;timestamp;temperature;humidity
37222;DHT22;23119;51.842;-2.230;2022-08-21T00:00:17;17.90;99.90
37222;DHT22;23119;51.842;-2.230;2022-08-21T00:02:53;17.80;99.90
37222;DHT22;23119;51.842;-2.230;2022-08-21T00:05:23;17.80;99.90
37222;DHT22;23119;51.842;-2.230;2022-08-21T00:07:49;17.80;99.90
37222;DHT22;23119;51.842;-2.230;2022-08-21T00:10:15;17.80;99.90
37222;DHT22;23119;51.842;-2.230;2022-08-21T00:12:42;17.70;99.90
37222;DHT22;23119;51.842;-2.230;2022-08-21T00:15:14;17.70;99.90
37222;DHT22;23119;51.842;-2.230;2022-08-21T00:17:40;17.60;99.90
37222;DHT22;23119;51.842;-2.230;2022-08-21T00:20:08;17.60;99.90
37222;DHT22;23119;51.842;-2.230;2022-08-21T00:22:42;17.60;99.90
37222;DHT22;23119;51.842;-2.230;2022-08-21T00:25:20;17.70;99.90
37222;DHT22;23119;51.842;-2.230;2022-08-21T00:27:50;17.60;99.90
37222;DHT22;23119;51.842;-2.230;2022-08-21T00:30:19;17.60;99.90
37222;DHT22;23119;51.842;-2.230;2022-08-21T00:32:45;17.60;99.90
37222;DHT22;23119;51.842;-2.230;2022-08-21T00:35:14;17.50;99.90
37222;DHT22;23119;51.842;-2.230;2022-08-21T00:37:41;17.50;99.90
37222;DHT22;23119;51.842;-2.230;2022-08-21T00:40:09;17.50;99.90
37222;DHT22;23119;51.842;-2.230;2022-08-21T00:42:38;17.50;99.90
37222;DHT22;23119;51.842;-2.230;2022-08-21T00:45:08;17.50;99.90
37222;DHT22;23119;51.842;-2.230;2022-08-21T00:47:54;17.40;99.90
37222;DHT22;23119;51.842;-2.230;2022-08-21T00:50:23;17.40;99.90
37222;DHT22;23119;51.842;-2.230;2022-08-21T00:52:51;17.50;99.90
37222;DHT22;23119;51.842;-2.230;2022-08-21T00:55:19;17.40;99.90
37222;DHT22;23119;51.842;-2.230;2022-08-21T00:57:52;17.40;99.90
37222;DHT22;23119;51.842;-2.230;2022-08-21T01:00:30;17.40;99.90
37222;DHT22;23119;51.842;-2.230;2022-08-21T01:03:05;17.40;99.90
37222;DHT22;23119;51.842;-2.230;2022-08-21T01:05:37;17.40;99.90
37222;DHT22;23119;51.842;-2.230;2022-08-21T01:08:04;17.30;99.90
37222;DHT22;23119;51.842;-2.230;2022-08-21T01:10:33;17.30;99.90
37222;DHT22;23119;51.842;-2.230;2022-08-21T01:13:01;17.30;99.90
37222;DHT22;23119;51.842;-2.230;2022-08-21T01:15:32;17.30;99.90
37222;DHT22;23119;51.842;-2.230;2022-08-21T01:17:59;17.30;99.90
37222;DHT22;23119;51.842;-2.230;2022-08-21T01:20:25;17.30;99.90
37222;DHT22;23119;51.842;-2.230;2022-08-21T01:22:51;17.20;99.90
37222;DHT22;23119;51.842;-2.230;2022-08-21T01:25:18;17.20;99.90
37222;DHT22;23119;51.842;-2.230;2022-08-21T01:27:45;17.20;99.90
37222;DHT22;23119;51.842;-2.230;2022-08-21T01:30:22;17.10;99.90
37222;DHT22;23119;51.842;-2.230;2022-08-21T01:32:55;17.10;99.90
37222;DHT22;23119;51.842;-2.230;2022-08-21T01:35:22;17.00;99.90
37222;DHT22;23119;51.842;-2.230;2022-08-21T01:37:48;17.00;99.90
37222;DHT22;23119;51.842;-2.230;2022-08-21T01:40:15;17.00;99.90
37222;DHT22;23119;51.842;-2.230;2022-08-21T01:42:45;17.00;99.90
37222;DHT22;23119;51.842;-2.230;2022-08-21T01:45:13;16.90;99.90
37222;DHT22;23119;51.842;-2.230;2022-08-21T01:47:42;17.00;99.90
37222;DHT22;23119;51.842;-2.230;2022-08-21T01:50:11;16.90;99.90
37222;DHT22;23119;51.842;-2.230;2022-08-21T01:52:40;16.90;99.90
37222;DHT22;23119;51.842;-2.230;2022-08-21T01:55:10;16.90;99.90
37222;DHT22;23119;51.842;-2.230;2022-08-21T01:57:36;16.90;99.90
37222;DHT22;23119;51.842;-2.230;2022-08-21T02:00:05;16.90;99.90
37222;DHT22;23119;51.842;-2.230;2022-08-21T02:02:32;16.90;99.90
37222;DHT22;23119;51.842;-2.230;2022-08-21T02:05:00;16.90;99.90
37222;DHT22;23119;51.842;-2.230;2022-08-21T02:07:26;16.90;99.90
37222;DHT22;23119;51.842;-2.230;2022-08-21T02:09:52;16.90;99.90
37222;DHT22;23119;51.842;-2.230;2022-08-21T02:12:17;16.90;99.90
37222;DHT22;23119;51.842;-2.230;2022-08-21T02:14:43;16.90;99.90
37222;DHT22;23119;51.842;-2.230;2022-08-21T02:17:11;16.90;99.90
37222;DHT22;23119;51.842;-2.230;2022-08-21T02:19:40;16.90;99.90
37222;DHT22;23119;51.842;-2.230;2022-08-21T02:22:06;16.90;99.90
37222;DHT22;23119;51.842;-2.230;2022-08-21T02:24:31;16.90;99.90
37222;DHT22;23119;51.842;-2.230;2022-08-21T02:26:59;16.90;99.90
37222;DHT22;23119;51.842;-2.230;2022-08-21T02:29:32;16.90;99.90
37222;DHT22;23119;51.842;-2.230;2022-08-21T02:31:58;16.90;99.90
37222;DHT22;23119;51.842;-2.230;2022-08-21T02:34:24;16.90;99.90
37222;DHT22;23119;51.842;-2.230;2022-08-21T02:36:50;16.90;99.90
37222;DHT22;23119;51.842;-2.230;2022-08-21T02:39:16;16.90;99.90
37222;DHT22;23119;51.842;-2.230;2022-08-21T02:41:42;16.90;99.90
37222;DHT22;23119;51.842;-2.230;2022-08-21T02:44:11;16.90;99.90
37222;DHT22;23119;51.842;-2.230;2022-08-21T02:46:39;16.90;99.90
37222;DHT22;23119;51.842;-2.230;2022-08-21T02:49:07;16.90;99.90
37222;DHT22;23119;51.842;-2.230;2022-08-21T02:51:32;16.90;99.90
37222;DHT22;23119;51.842;-2.230;2022-08-21T02:53:58;17.00;99.90
37222;DHT22;23119;51.842;-2.230;2022-08-21T02:56:24;17.00;99.90
37222;DHT22;23119;51.842;-2.230;2022-08-21T02:58:51;16.90;99.90
37222;DHT22;23119;51.842;-2.230;2022-08-21T03:01:20;16.90;99.90
37222;DHT22;23119;51.842;-2.230;2022-08-21T03:03:50;16.90;99.90
37222;DHT22;23119;51.842;-2.230;2022-08-21T03:06:16;16.90;99.90
37222;DHT22;23119;51.842;-2.230;2022-08-21T03:08:42;16.90;99.90
37222;DHT22;23119;51.842;-2.230;2022-08-21T03:11:13;16.90;99.90
37222;DHT22;23119;51.842;-2.230;2022-08-21T03:13:39;16.90;99.90
37222;DHT22;23119;51.842;-2.230;2022-08-21T03:16:06;16.90;99.90
37222;DHT22;23119;51.842;-2.230;2022-08-21T03:18:32;16.90;99.90
37222;DHT22;23119;51.842;-2.230;2022-08-21T03:20:57;16.90;99.90
37222;DHT22;23119;51.842;-2.230;2022-08-21T03:23:25;16.90;99.90
37222;DHT22;23119;51.842;-2.230;2022-08-21T03:25:51;16.90;99.90
37222;DHT22;23119;51.842;-2.230;2022-08-21T03:28:19;16.90;99.90
37222;DHT22;23119;51.842;-2.230;2022-08-21T03:30:47;16.90;99.90
37222;DHT22;23119;51.842;-2.230;2022-08-21T03:33:17;16.90;99.90
37222;DHT22;23119;51.842;-2.230;2022-08-21T03:35:45;16.90;99.90
37222;DHT22;23119;51.842;-2.230;2022-08-21T03:38:11;16.90;99.90
37222;DHT22;23119;51.842;-2.230;2022-08-21T03:40:38;16.90;99.90
37222;DHT22;23119;51.842;-2.230;2022-08-21T03:43:04;16.90;99.90
37222;DHT22;23119;51.842;-2.230;2022-08-21T03:45:30;16.90;99.90
37222;DHT22;23119;51.842;-2.230;2022-08-21T03:48:01;16.90;99.90
37222;DHT22;23119;51.842;-2.230;2022-08-21T03:50:33;16.90;99.90
37222;DHT22;23119;51.842;-2.230;2022-08-21T03:53:02;16.90;99.90
37222;DHT22;23119;51.842;-2.230;2022-08-21T03:55:30;16.90;99.90
37222;DHT22;23119;51.842;-2.230;2022-08-21T03:57:56;16.90;99.90
37222;DHT22;23119;51.842;-2.230;2022-08-21T04:00:23;16.90;99.90
37222;DHT22;23119;51.842;-2.230;2022-08-21T04:02:51;16.90;99.90
37222;DHT22;23119;51.842;-2.230;2022-08-21T04:05:18;16.90;99.90
37222;DHT22;23119;51.842;-2.230;2022-08-21T04:08:03;16.90;99.90
37222;DHT22;23119;51.842;-2.230;2022-08-21T04:10:31;16.90;99.90
37222;DHT22;23119;51.842;-2.230;2022-08-21T04:12:57;16.90;99.90
37222;DHT22;23119;51.842;-2.230;2022-08-21T04:15:28;16.80;99.90
37222;DHT22;23119;51.842;-2.230;2022-08-21T04:17:54;16.90;99.90
37222;DHT22;23119;51.842;-2.230;2022-08-21T04:20:23;16.90;99.90
37222;DHT22;23119;51.842;-2.230;2022-08-21T04:22:50;16.90;99.90
37222;DHT22;23119;51.842;-2.230;2022-08-21T04:25:18;16.80;99.90
37222;DHT22;23119;51.842;-2.230;2022-08-21T04:27:44;16.90;99.90
37222;DHT22;23119;51.842;-2.230;2022-08-21T04:30:11;16.90;99.90
37222;DHT22;23119;51.842;-2.230;2022-08-21T04:32:46;16.90;99.90
37222;DHT22;23119;51.842;-2.230;2022-08-21T04:35:14;16.90;99.90
37222;DHT22;23119;51.842;-2.230;2022-08-21T04:37:40;16.90;99.90
37222;DHT22;23119;51.842;-2.230;2022-08-21T04:40:06;16.90;99.90
37222;DHT22;23119;51.842;-2.230;2022-08-21T04:42:33;16.90;99.90
37222;DHT22;23119;51.842;-2.230;2022-08-21T04:45:06;16.90;99.90
37222;DHT22;23119;51.842;-2.230;2022-08-21T04:47:31;16.90;99.90
37222;DHT22;23119;51.842;-2.230;2022-08-21T04:49:59;16.90;99.90
37222;DHT22;23119;51.842;-2.230;2022-08-21T04:52:27;16.90;99.90
37222;DHT22;23119;51.842;-2.230;2022-08-21T04:54:53;16.90;99.90
37222;DHT22;23119;51.842;-2.230;2022-08-21T04:57:19;16.90;99.90
37222;DHT22;23119;51.842;-2.230;2022-08-21T04:59:47;16.90;99.90
37222;DHT22;23119;51.842;-2.230;2022-08-21T05:02:15;16.90;99.90
37222;DHT22;23119;51.842;-2.230;2022-08-21T05:04:45;17.00;99.90
37222;DHT22;23119;51.842;-2.230;2022-08-21T05:07:20;17.00;99.90
37222;DHT22;23119;51.842;-2.230;2022-08-21T05:09:48;17.00;99.90
37222;DHT22;23119;51.842;-2.230;2022-08-21T05:12:19;16.90;99.90
37222;DHT22;23119;51.842;-2.230;2022-08-21T05:14:45;16.90;99.90
37222;DHT22;23119;51.842;-2.230;2022-08-21T05:17:15;16.90;99.90
37222;DHT22;23119;51.842;-2.230;2022-08-21T05:19:43;16.90;99.90
37222;DHT22;23119;51.842;-2.230;2022-08-21T05:22:18;17.00;99.90
37222;DHT22;23119;51.842;-2.230;2022-08-21T05:24:43;17.00;99.90
37222;DHT22;23119;51.842;-2.230;2022-08-21T05:27:09;17.00;99.90
37222;DHT22;23119;51.842;-2.230;2022-08-21T05:29:37;17.10;99.90
37222;DHT22;23119;51.842;-2.230;2022-08-21T05:32:11;17.20;99.90
37222;DHT22;23119;51.842;-2.230;2022-08-21T05:34:37;17.20;99.90
37222;DHT22;23119;51.842;-2.230;2022-08-21T05:37:03;17.30;99.90
37222;DHT22;23119;51.842;-2.230;2022-08-21T05:39:29;17.30;99.90
37222;DHT22;23119;51.842;-2.230;2022-08-21T05:41:55;17.40;99.90
37222;DHT22;23119;51.842;-2.230;2022-08-21T05:44:21;17.50;99.90
37222;DHT22;23119;51.842;-2.230;2022-08-21T05:46:52;17.50;99.90
37222;DHT22;23119;51.842;-2.230;2022-08-21T05:49:22;17.60;99.90
37222;DHT22;23119;51.842;-2.230;2022-08-21T05:51:51;17.80;99.90
37222;DHT22;23119;51.842;-2.230;2022-08-21T05:54:19;18.40;99.90
37222;DHT22;23119;51.842;-2.230;2022-08-21T05:56:44;19.30;99.90
37222;DHT22;23119;51.842;-2.230;2022-08-21T05:59:12;19.70;99.90
37222;DHT22;23119;51.842;-2.230;2022-08-21T06:01:39;19.80;99.90
37222;DHT22;23119;51.842;-2.230;2022-08-21T06:04:06;19.80;99.90
37222;DHT22;23119;51.842;-2.230;2022-08-21T06:06:33;19.80;99.90
37222;DHT22;23119;51.842;-2.230;2022-08-21T06:08:59;19.80;99.90
37222;DHT22;23119;51.842;-2.230;2022-08-21T06:11:24;20.20;99.90
37222;DHT22;23119;51.842;-2.230;2022-08-21T06:13:50;21.00;99.90
37222;DHT22;23119;51.842;-2.230;2022-08-21T06:16:16;21.60;99.90
37222;DHT22;23119;51.842;-2.230;2022-08-21T06:18:44;21.60;99.90
37222;DHT22;23119;51.842;-2.230;2022-08-21T06:21:10;21.30;99.90
37222;DHT22;23119;51.842;-2.230;2022-08-21T06:23:37;21.10;99.90
37222;DHT22;23119;51.842;-2.230;2022-08-21T06:26:04;20.80;99.90
37222;DHT22;23119;51.842;-2.230;2022-08-21T06:28:38;20.50;99.90
37222;DHT22;23119;51.842;-2.230;2022-08-21T06:31:18;20.30;99.90
37222;DHT22;23119;51.842;-2.230;2022-08-21T06:33:48;20.00;99.90
37222;DHT22;23119;51.842;-2.230;2022-08-21T06:36:22;19.80;99.90
37222;DHT22;23119;51.842;-2.230;2022-08-21T06:38:48;19.70;99.90
37222;DHT22;23119;51.842;-2.230;2022-08-21T06:41:14;19.50;99.90
37222;DHT22;23119;51.842;-2.230;2022-08-21T06:43:42;19.40;99.90
37222;DHT22;23119;51.842;-2.230;2022-08-21T06:46:08;19.20;99.90
37222;DHT22;23119;51.842;-2.230;2022-08-21T06:48:36;19.20;99.90
37222;DHT22;23119;51.842;-2.230;2022-08-21T06:51:02;19.10;99.90
37222;DHT22;23119;51.842;-2.230;2022-08-21T06:53:28;19.00;99.90
37222;DHT22;23119;51.842;-2.230;2022-08-21T06:55:54;19.00;99.90
37222;DHT22;23119;51.842;-2.230;2022-08-21T06:58:19;18.90;99.90
37222;DHT22;23119;51.842;-2.230;2022-08-21T07:00:48;19.00;99.90
37222;DHT22;23119;51.842;-2.230;2022-08-21T07:03:36;18.80;99.90
37222;DHT22;23119;51.842;-2.230;2022-08-21T07:06:07;18.80;99.90
37222;DHT22;23119;51.842;-2.230;2022-08-21T07:08:34;18.80;99.90
37222;DHT22;23119;51.842;-2.230;2022-08-21T07:11:02;18.70;99.90
37222;DHT22;23119;51.842;-2.230;2022-08-21T07:13:34;18.80;99.90
37222;DHT22;23119;51.842;-2.230;2022-08-21T07:16:04;18.80;99.90
37222;DHT22;23119;51.842;-2.230;2022-08-21T07:18:31;18.80;99.90
37222;DHT22;23119;51.842;-2.230;2022-08-21T07:20:56;18.80;99.90
37222;DHT22;23119;51.842;-2.230;2022-08-21T07:23:28;18.90;99.90
37222;DHT22;23119;51.842;-2.230;2022-08-21T07:25:57;18.90;99.90
37222;DHT22;23119;51.842;-2.230;2022-08-21T07:28:28;19.40;99.90
37222;DHT22;23119;51.842;-2.230;2022-08-21T07:31:00;20.00;99.90
37222;DHT22;23119;51.842;-2.230;2022-08-21T07:33:29;20.80;99.90
37222;DHT22;23119;51.842;-2.230;2022-08-21T07:35:55;21.20;99.90
37222;DHT22;23119;51.842;-2.230;2022-08-21T07:38:21;21.50;99.90
37222;DHT22;23119;51.842;-2.230;2022-08-21T07:40:48;21.60;99.90
37222;DHT22;23119;51.842;-2.230;2022-08-21T07:43:14;21.70;99.90
37222;DHT22;23119;51.842;-2.230;2022-08-21T07:45:42;21.70;99.90
37222;DHT22;23119;51.842;-2.230;2022-08-21T07:48:08;21.70;99.90
37222;DHT22;23119;51.842;-2.230;2022-08-21T07:50:34;21.60;99.90
37222;DHT22;23119;51.842;-2.230;2022-08-21T07:52:59;21.50;99.90
37222;DHT22;23119;51.842;-2.230;2022-08-21T07:55:27;21.50;99.90
37222;DHT22;23119;51.842;-2.230;2022-08-21T07:57:56;21.40;99.90
37222;DHT22;23119;51.842;-2.230;2022-08-21T08:00:23;21.30;99.90
37222;DHT22;23119;51.842;-2.230;2022-08-21T08:02:54;21.30;99.90
37222;DHT22;23119;51.842;-2.230;2022-08-21T08:05:23;21.20;99.90
37222;DHT22;23119;51.842;-2.230;2022-08-21T08:07:55;21.20;99.90
37222;DHT22;23119;51.842;-2.230;2022-08-21T08:10:21;21.20;99.90
37222;DHT22;23119;51.842;-2.230;2022-08-21T08:12:51;21.10;99.90
37222;DHT22;23119;51.842;-2.230;2022-08-21T08:15:22;21.20;99.90
37222;DHT22;23119;51.842;-2.230;2022-08-21T08:17:51;21.30;99.90
37222;DHT22;23119;51.842;-2.230;2022-08-21T08:20:19;21.40;99.90
37222;DHT22;23119;51.842;-2.230;2022-08-21T08:22:51;21.60;99.90
37222;DHT22;23119;51.842;-2.230;2022-08-21T08:25:19;22.00;99.90
37222;DHT22;23119;51.842;-2.230;2022-08-21T08:27:49;23.10;99.90
37222;DHT22;23119;51.842;-2.230;2022-08-21T08:30:19;23.70;99.90
37222;DHT22;23119;51.842;-2.230;2022-08-21T08:32:48;24.00;99.90
37222;DHT22;23119;51.842;-2.230;2022-08-21T08:35:24;24.60;99.10
37222;DHT22;23119;51.842;-2.230;2022-08-21T08:37:50;26.20;96.70
37222;DHT22;23119;51.842;-2.230;2022-08-21T08:40:39;28.30;95.00
37222;DHT22;23119;51.842;-2.230;2022-08-21T08:43:14;30.00;91.90
37222;DHT22;23119;51.842;-2.230;2022-08-21T08:46:00;30.20;91.50
37222;DHT22;23119;51.842;-2.230;2022-08-21T08:48:55;29.60;90.10
37222;DHT22;23119;51.842;-2.230;2022-08-21T08:51:35;28.70;91.10
37222;DHT22;23119;51.842;-2.230;2022-08-21T08:54:15;28.20;91.70
37222;DHT22;23119;51.842;-2.230;2022-08-21T08:56:41;28.00;92.10
37222;DHT22;23119;51.842;-2.230;2022-08-21T08:59:18;27.90;92.20
37222;DHT22;23119;51.842;-2.230;2022-08-21T09:01:48;27.80;91.70
37222;DHT22;23119;51.842;-2.230;2022-08-21T09:04:19;27.40;92.10
37222;DHT22;23119;51.842;-2.230;2022-08-21T09:07:06;27.00;91.60
37222;DHT22;23119;51.842;-2.230;2022-08-21T09:09:43;26.40;92.00
37222;DHT22;23119;51.842;-2.230;2022-08-21T09:20:27;26.10;93.10
37222;DHT22;23119;51.842;-2.230;2022-08-21T09:25:51;26.20;93.10
37222;DHT22;23119;51.842;-2.230;2022-08-21T09:28:22;26.10;93.40
37222;DHT22;23119;51.842;-2.230;2022-08-21T09:30:47;25.80;93.60
37222;DHT22;23119;51.842;-2.230;2022-08-21T09:33:17;25.60;93.80
37222;DHT22;23119;51.842;-2.230;2022-08-21T09:35:54;25.40;94.20
37222;DHT22;23119;51.842;-2.230;2022-08-21T09:38:28;25.30;94.20
37222;DHT22;23119;51.842;-2.230;2022-08-21T09:41:26;25.20;94.70
37222;DHT22;23119;51.842;-2.230;2022-08-21T09:43:53;25.50;94.20
37222;DHT22;23119;51.842;-2.230;2022-08-21T09:46:24;25.80;94.50
37222;DHT22;23119;51.842;-2.230;2022-08-21T09:48:54;26.30;94.20
37222;DHT22;23119;51.842;-2.230;2022-08-21T09:51:28;26.80;93.80
37222;DHT22;23119;51.842;-2.230;2022-08-21T09:59:37;28.40;92.00
37222;DHT22;23119;51.842;-2.230;2022-08-21T10:04:57;28.10;90.70
37222;DHT22;23119;51.842;-2.230;2022-08-21T10:07:26;27.80;91.10
37222;DHT22;23119;51.842;-2.230;2022-08-21T10:10:20;27.50;91.40
37222;DHT22;23119;51.842;-2.230;2022-08-21T10:13:28;27.40;91.50
37222;DHT22;23119;51.842;-2.230;2022-08-21T10:19:00;27.00;91.50
37222;DHT22;23119;51.842;-2.230;2022-08-21T10:24:33;27.20;91.20
37222;DHT22;23119;51.842;-2.230;2022-08-21T10:35:14;26.60;91.10
37222;DHT22;23119;51.842;-2.230;2022-08-21T10:48:51;25.60;92.50
37222;DHT22;23119;51.842;-2.230;2022-08-21T10:56:47;25.00;93.10
37222;DHT22;23119;51.842;-2.230;2022-08-21T11:02:28;24.70;93.40
37222;DHT22;23119;51.842;-2.230;2022-08-21T11:05:05;24.70;93.50
37222;DHT22;23119;51.842;-2.230;2022-08-21T11:07:36;24.60;93.70
37222;DHT22;23119;51.842;-2.230;2022-08-21T11:10:38;24.50;93.70
37222;DHT22;23119;51.842;-2.230;2022-08-21T11:13:17;24.50;93.90
37222;DHT22;23119;51.842;-2.230;2022-08-21T11:15:59;24.40;94.00
37222;DHT22;23119;51.842;-2.230;2022-08-21T11:19:19;24.30;94.00
37222;DHT22;23119;51.842;-2.230;2022-08-21T11:21:42;24.10;94.30
37222;DHT22;23119;51.842;-2.230;2022-08-21T11:27:22;24.10;94.60
37222;DHT22;23119;51.842;-2.230;2022-08-21T11:29:54;24.20;94.70
37222;DHT22;23119;51.842;-2.230;2022-08-21T11:37:45;24.60;94.30
37222;DHT22;23119;51.842;-2.230;2022-08-21T11:43:43;24.90;94.20
37222;DHT22;23119;51.842;-2.230;2022-08-21T11:51:42;26.40;92.90
37222;DHT22;23119;51.842;-2.230;2022-08-21T11:54:25;26.70;92.80
37222;DHT22;23119;51.842;-2.230;2022-08-21T11:57:22;27.00;91.90
37222;DHT22;23119;51.842;-2.230;2022-08-21T12:02:33;27.30;91.10
37222;DHT22;23119;51.842;-2.230;2022-08-21T12:05:05;27.30;90.90
37222;DHT22;23119;51.842;-2.230;2022-08-21T12:07:39;27.20;90.80
37222;DHT22;23119;51.842;-2.230;2022-08-21T12:10:17;27.10;90.80
37222;DHT22;23119;51.842;-2.230;2022-08-21T12:12:49;27.00;90.60
37222;DHT22;23119;51.842;-2.230;2022-08-21T12:18:23;27.00;90.50
37222;DHT22;23119;51.842;-2.230;2022-08-21T12:21:16;27.10;90.10
37222;DHT22;23119;51.842;-2.230;2022-08-21T12:23:49;27.30;89.20
37222;DHT22;23119;51.842;-2.230;2022-08-21T12:26:28;27.50;89.90
37222;DHT22;23119;51.842;-2.230;2022-08-21T12:29:14;27.70;88.90
37222;DHT22;23119;51.842;-2.230;2022-08-21T12:32:19;28.00;87.40
37222;DHT22;23119;51.842;-2.230;2022-08-21T12:37:43;28.50;83.30
37222;DHT22;23119;51.842;-2.230;2022-08-21T12:43:43;28.30;83.40
37222;DHT22;23119;51.842;-2.230;2022-08-21T12:49:13;28.30;83.40
37222;DHT22;23119;51.842;-2.230;2022-08-21T12:54:08;28.40;83.80
37222;DHT22;23119;51.842;-2.230;2022-08-21T12:56:37;28.50;83.80
37222;DHT22;23119;51.842;-2.230;2022-08-21T12:59:11;28.80;83.90
37222;DHT22;23119;51.842;-2.230;2022-08-21T13:01:51;29.10;83.00
37222;DHT22;23119;51.842;-2.230;2022-08-21T13:04:20;29.20;82.30
37222;DHT22;23119;51.842;-2.230;2022-08-21T13:06:59;29.30;82.80
37222;DHT22;23119;51.842;-2.230;2022-08-21T13:09:28;29.50;82.60
37222;DHT22;23119;51.842;-2.230;2022-08-21T13:11:55;29.50;81.60
37222;DHT22;23119;51.842;-2.230;2022-08-21T13:14:39;29.60;81.10
37222;DHT22;23119;51.842;-2.230;2022-08-21T13:17:09;29.60;78.40
37222;DHT22;23119;51.842;-2.230;2022-08-21T13:19:35;29.50;80.50
37222;DHT22;23119;51.842;-2.230;2022-08-21T13:22:01;29.50;79.70
37222;DHT22;23119;51.842;-2.230;2022-08-21T13:24:30;29.20;79.40
37222;DHT22;23119;51.842;-2.230;2022-08-21T13:26:58;29.20;79.50
37222;DHT22;23119;51.842;-2.230;2022-08-21T13:29:32;29.00;79.20
37222;DHT22;23119;51.842;-2.230;2022-08-21T13:32:02;28.80;79.20
37222;DHT22;23119;51.842;-2.230;2022-08-21T13:34:37;28.70;79.50
37222;DHT22;23119;51.842;-2.230;2022-08-21T13:37:08;28.70;79.10
37222;DHT22;23119;51.842;-2.230;2022-08-21T13:39:34;28.60;78.80
37222;DHT22;23119;51.842;-2.230;2022-08-21T13:42:02;28.40;78.80
37222;DHT22;23119;51.842;-2.230;2022-08-21T13:44:43;28.40;79.10
37222;DHT22;23119;51.842;-2.230;2022-08-21T13:47:12;28.30;79.00
37222;DHT22;23119;51.842;-2.230;2022-08-21T13:49:51;28.10;79.00
37222;DHT22;23119;51.842;-2.230;2022-08-21T13:52:26;27.90;78.40
37222;DHT22;23119;51.842;-2.230;2022-08-21T13:55:13;27.70;79.70
37222;DHT22;23119;51.842;-2.230;2022-08-21T13:57:43;27.60;79.80
37222;DHT22;23119;51.842;-2.230;2022-08-21T14:00:13;27.50;80.30
37222;DHT22;23119;51.842;-2.230;2022-08-21T14:02:43;27.60;80.30
37222;DHT22;23119;51.842;-2.230;2022-08-21T14:05:22;27.50;79.60
37222;DHT22;23119;51.842;-2.230;2022-08-21T14:07:58;27.50;79.00
37222;DHT22;23119;51.842;-2.230;2022-08-21T14:10:29;27.60;79.20
37222;DHT22;23119;51.842;-2.230;2022-08-21T14:13:00;27.70;79.00
37222;DHT22;23119;51.842;-2.230;2022-08-21T14:15:34;27.70;78.20
37222;DHT22;23119;51.842;-2.230;2022-08-21T14:18:26;27.80;78.70
37222;DHT22;23119;51.842;-2.230;2022-08-21T14:21:04;27.90;78.20
37222;DHT22;23119;51.842;-2.230;2022-08-21T14:23:36;28.10;77.70
37222;DHT22;23119;51.842;-2.230;2022-08-21T14:26:05;28.10;78.70
37222;DHT22;23119;51.842;-2.230;2022-08-21T14:28:50;28.20;77.10
37222;DHT22;23119;51.842;-2.230;2022-08-21T14:31:27;28.30;77.70
37222;DHT22;23119;51.842;-2.230;2022-08-21T14:33:55;28.40;78.40
37222;DHT22;23119;51.842;-2.230;2022-08-21T14:36:21;28.40;78.40
37222;DHT22;23119;51.842;-2.230;2022-08-21T14:38:46;28.50;77.90
37222;DHT22;23119;51.842;-2.230;2022-08-21T14:41:18;28.50;77.60
37222;DHT22;23119;51.842;-2.230;2022-08-21T14:43:51;28.50;77.80
37222;DHT22;23119;51.842;-2.230;2022-08-21T14:46:24;28.60;77.60
37222;DHT22;23119;51.842;-2.230;2022-08-21T14:48:50;28.50;77.30
37222;DHT22;23119;51.842;-2.230;2022-08-21T14:51:16;28.40;77.80
37222;DHT22;23119;51.842;-2.230;2022-08-21T14:53:42;28.50;78.20
37222;DHT22;23119;51.842;-2.230;2022-08-21T14:56:11;28.50;77.90
37222;DHT22;23119;51.842;-2.230;2022-08-21T14:58:46;28.60;78.10
37222;DHT22;23119;51.842;-2.230;2022-08-21T15:01:15;28.70;78.10
37222;DHT22;23119;51.842;-2.230;2022-08-21T15:03:45;28.70;78.00
37222;DHT22;23119;51.842;-2.230;2022-08-21T15:06:18;28.60;77.90
37222;DHT22;23119;51.842;-2.230;2022-08-21T15:08:46;28.50;77.40
37222;DHT22;23119;51.842;-2.230;2022-08-21T15:11:32;28.40;77.70
37222;DHT22;23119;51.842;-2.230;2022-08-21T15:14:01;28.30;77.60
37222;DHT22;23119;51.842;-2.230;2022-08-21T15:16:30;28.20;78.00
37222;DHT22;23119;51.842;-2.230;2022-08-21T15:19:04;28.30;78.40
37222;DHT22;23119;51.842;-2.230;2022-08-21T15:21:29;28.20;78.10
37222;DHT22;23119;51.842;-2.230;2022-08-21T15:23:58;28.10;78.00
37222;DHT22;23119;51.842;-2.230;2022-08-21T15:26:25;28.00;78.00
37222;DHT22;23119;51.842;-2.230;2022-08-21T15:28:50;28.00;78.40
37222;DHT22;23119;51.842;-2.230;2022-08-21T15:31:16;28.00;78.70
37222;DHT22;23119;51.842;-2.230;2022-08-21T15:33:42;27.90;78.90
37222;DHT22;23119;51.842;-2.230;2022-08-21T15:36:08;27.90;79.00
37222;DHT22;23119;51.842;-2.230;2022-08-21T15:38:34;27.90;78.80
37222;DHT22;23119;51.842;-2.230;2022-08-21T15:41:02;27.90;78.60
37222;DHT22;23119;51.842;-2.230;2022-08-21T15:43:30;27.90;78.90
37222;DHT22;23119;51.842;-2.230;2022-08-21T15:46:01;27.90;78.70
37222;DHT22;23119;51.842;-2.230;2022-08-21T15:48:35;27.90;78.40
37222;DHT22;23119;51.842;-2.230;2022-08-21T15:51:01;28.00;78.50
37222;DHT22;23119;51.842;-2.230;2022-08-21T15:53:27;28.00;78.80
37222;DHT22;23119;51.842;-2.230;2022-08-21T15:55:55;28.00;79.10
37222;DHT22;23119;51.842;-2.230;2022-08-21T15:58:21;28.00;79.20
37222;DHT22;23119;51.842;-2.230;2022-08-21T16:00:47;28.00;78.60
37222;DHT22;23119;51.842;-2.230;2022-08-21T16:03:16;28.00;78.70
37222;DHT22;23119;51.842;-2.230;2022-08-21T16:05:43;27.90;78.60
37222;DHT22;23119;51.842;-2.230;2022-08-21T16:08:10;27.90;79.00
37222;DHT22;23119;51.842;-2.230;2022-08-21T16:10:36;27.80;78.90
37222;DHT22;23119;51.842;-2.230;2022-08-21T16:13:05;27.80;79.10
37222;DHT22;23119;51.842;-2.230;2022-08-21T16:15:32;27.70;79.10
37222;DHT22;23119;51.842;-2.230;2022-08-21T16:17:58;27.60;79.20
37222;DHT22;23119;51.842;-2.230;2022-08-21T16:20:26;27.60;79.60
37222;DHT22;23119;51.842;-2.230;2022-08-21T16:22:57;27.50;79.80
37222;DHT22;23119;51.842;-2.230;2022-08-21T16:25:23;27.50;80.00
37222;DHT22;23119;51.842;-2.230;2022-08-21T16:27:53;27.40;80.10
37222;DHT22;23119;51.842;-2.230;2022-08-21T16:30:23;27.40;80.10
37222;DHT22;23119;51.842;-2.230;2022-08-21T16:32:49;27.20;79.80
37222;DHT22;23119;51.842;-2.230;2022-08-21T16:35:19;27.20;80.10
37222;DHT22;23119;51.842;-2.230;2022-08-21T16:37:49;27.10;80.20
37222;DHT22;23119;51.842;-2.230;2022-08-21T16:40:15;27.20;80.50
37222;DHT22;23119;51.842;-2.230;2022-08-21T16:42:41;27.20;80.30
37222;DHT22;23119;51.842;-2.230;2022-08-21T16:45:12;27.20;80.10
37222;DHT22;23119;51.842;-2.230;2022-08-21T16:47:38;27.10;80.50
37222;DHT22;23119;51.842;-2.230;2022-08-21T16:50:04;27.00;80.70
37222;DHT22;23119;51.842;-2.230;2022-08-21T16:52:34;26.90;80.80
37222;DHT22;23119;51.842;-2.230;2022-08-21T16:55:01;27.00;80.70
37222;DHT22;23119;51.842;-2.230;2022-08-21T16:57:27;27.00;80.60
37222;DHT22;23119;51.842;-2.230;2022-08-21T16:59:56;27.00;80.60
37222;DHT22;23119;51.842;-2.230;2022-08-21T17:02:33;27.00;80.80